Tiempo atmosférico en la estación meteorológica de Fraga, Huesca (170 m.)



Fecha
DESCASC
Temp. máxima en grados centígrados (hora)
DESCASC
Temp. mínima en grados centígrados (hora)
DESCASC
Temp. media en grados centígrados
DESCASC
Racha de viento máxima en m/sg (hora)
DESCASC
Velocidad máxima media en intervalos de 10 minutos(hora)
DESCASC
Precipitaciones diarias en mm
DESCASC
Precipitaciones de 00:00 a 06:00 en mm
DESCASC
Precipitaciones de 06:00 a 12:00 en mm
DESCASC
Precipitaciones de 12:00 a 18:00 en mm
DESCASC
Precipitaciones de 18:00 a 24:00 en mm
DESCASC
29-10-2020 22.4 (16:10) 7.3 (07:50) 14.8 4.72 (16:40) 3.06 (18:20) 0 0 0 0 0
28-10-2020 22.2 (16:20) 7.5 (07:50) 14.9 4.17 (16:20) 2.5 (01:10) 0 0 0 0 0
27-10-2020 19.2 (14:40) 8.8 (00:00) 14 9.72 (12:30) 6.11 (10:40) 0 0 0 0 0
26-10-2020 16.5 (15:50) 9.5 (00:00) 13 18.61 (15:50) 13.06 (15:50) 0.2 0.2 0 0 0
25-10-2020 21.2 (15:20) 6.4 (00:00) 13.8 18.61 (23:30) 10.83 (23:30) 0.8 0 0 0 0.8
24-10-2020 22 (15:50) 9.1 (00:00) 15.6 7.5 (17:00) 5.28 (17:00) 0 0 0 0 0
23-10-2020 22.3 (15:40) 13 (00:00) 17.6 11.39 (16:20) 8.06 (16:00) 0 0 0 0 0
22-10-2020 20.3 (14:30) 15.6 (00:00) 17.9 10.56 (21:10) 6.94 (21:00) 2.8 0.4 0.8 1.4 0.2
21-10-2020 26.3 (14:40) 17 (00:00) 21.6 9.44 (06:20) 6.67 (06:40) 0 0 0 0 0
20-10-2020 20 (12:00) 14.1 (00:00) 17.1 10.83 (17:10) 7.5 (03:50) 0 0 0 0 0
19-10-2020 22.5 (16:00) 5.7 (00:00) 14.1 11.11 (17:10) 6.39 (16:40) 0 0 0 0 0
18-10-2020 21.1 (16:00) 3.3 (00:00) 12.2 4.17 (18:40) 3.33 (18:50) 0 0 0 0 0
17-10-2020 20 (16:40) 2.9 (00:00) 11.5 5.28 (15:20) 3.06 (16:50) 0 0 0 0 0
16-10-2020 18.5 (17:30) 5.4 (00:00) 12 6.39 (22:10) 3.61 (01:30) 0 0 0 0 0
15-10-2020 17.6 (14:30) 8.6 (00:00) 13.1 14.72 (17:00) 10 (17:30) 0 0 0 0 0
14-10-2020 18 (15:30) 10.5 (00:00) 14.3 18.61 (17:50) 11.67 (15:10) 1.8 1.8 0 0 0
13-10-2020 21.8 (15:20) 10 (00:00) 15.9 20 (15:20) 12.5 (14:40) 0 0 0 0 0
12-10-2020 21.6 (16:50) 10.7 (00:00) 16.2 11.94 (01:30) 7.5 (00:10) 0 0 0 0 0
11-10-2020 20.4 (14:40) 10.7 (00:00) 15.5 18.06 (19:00) 11.39 (19:00) 0 0 0 0 0
10-10-2020 24.8 (16:30) 13.9 (00:00) 19.3 11.39 (20:00) 7.5 (19:20) 0 0 0 0 0
09-10-2020 27.3 (17:50) 13 (00:00) 20.1 6.11 (21:40) 3.61 (21:40) 0 0 0 0 0
08-10-2020 26.7 (17:20) 11.7 (00:00) 19.2 7.22 (19:40) 4.17 (19:40) 0 0 0 0 0
07-10-2020 26 (15:10) 16.7 (00:00) 21.4 16.39 (18:00) 10.28 (14:40) 0 0 0 0 0
06-10-2020 26 (15:10) 7.6 (00:00) 16.8 11.11 (17:10) 7.22 (16:10) 0 0 0 0 0
05-10-2020 20.4 (16:50) 8.8 (00:00) 14.6 15.83 (15:00) 10 (15:00) 0 0 0 0 0
04-10-2020 20.4 (16:30) 6.7 (00:00) 13.5 15.56 (17:30) 8.89 (17:30) 0.2 0 0 0 0.2
03-10-2020 18.5 (17:00) 9 (00:00) 13.8 12.22 (12:00) 8.61 (12:10) 0 0 0 0 0
02-10-2020 18.7 (00:00) 10 (00:00) 14.4 16.94 (13:20) 10 (13:40) 4.6 0 2 2.6 0
01-10-2020 26.8 (15:50) 10.7 (00:00) 18.7 8.61 (15:50) 5.83 (18:00) 0 0 0 0 0
30-09-2020 27.3 (17:00) 8.1 (00:00) 17.7 6.67 (21:30) 4.17 (21:30) 0 0 0 0 0

Gráficas

Temp. máximas Temp. mínimas Temp. medias Precipitaciones Rachas de viento máximas Velocidades máximas media en intervalos de 10 minutos

Datos horarios

Fecha y hora oficial Temperatura (ºC) Velocidad del viento (km/h) Dirección del viento Racha (km/h) Dirección de racha Precipitación (mm) Presión (hPa) Tendencia (hPa) Humedad (%)
2020-10-29 23:00:00 11.3 4 Oeste 8 Oeste 0 -- -- 79
2020-10-29 22:00:00 14.1 2 Este 4 Nordeste 0 -- -- 70
2020-10-29 21:00:00 15.7 2 Sur 4 Este 0 -- -- 66
2020-10-29 20:00:00 16.7 3 Sur 6 Sur 0 -- -- 63
2020-10-29 19:00:00 17.7 3 Sudeste 13 Nordeste 0 -- -- 59
2020-10-29 18:00:00 19.1 10 Nordeste 14 Nordeste 0 -- -- 55
2020-10-29 17:00:00 21.6 6 Nordeste 17 Nordeste 0 -- -- 49
2020-10-29 16:00:00 22.3 3 Nordeste 8 Este 0 -- -- 48
2020-10-29 15:00:00 22 3 Sudoeste 10 Sudoeste 0 -- -- 48
2020-10-29 14:00:00 20.9 4 Sudoeste 12 Oeste 0 -- -- 51
2020-10-29 13:00:00 19.1 4 Sudeste 8 Sudeste 0 -- -- 57
2020-10-29 12:00:00 17.6 3 Sudoeste 8 Sudeste 0 -- -- 62
2020-10-29 11:00:00 14.6 2 Sudoeste 5 Sudoeste 0 -- -- 73
2020-10-29 10:00:00 10.8 0 Calma 4 Sudoeste 0 -- -- 83
2020-10-29 09:00:00 8.5 3 Sur 4 Sur 0 -- -- 89
2020-10-29 08:00:00 7.3 0 Calma 5 Sur 0 -- -- 91
2020-10-29 07:00:00 7.7 2 Nordeste 6 Noroeste 0 -- -- 91
2020-10-29 06:00:00 8.9 2 Sudoeste 6 Sur 0 -- -- 86
2020-10-29 05:00:00 9.2 0 Calma 3 Sudoeste 0 -- -- 85
2020-10-29 04:00:00 10.1 0 Calma 4 Nordeste 0 -- -- 87
2020-10-29 03:00:00 10.2 0 Calma 5 Sur 0 -- -- 85
2020-10-29 02:00:00 10.8 4 Sur 8 Noroeste 0 -- -- 84
2020-10-29 01:00:00 11.2 5 Oeste 8 Noroeste 0 -- -- 82
2020-10-29 00:00:00 12.5 0 Calma 8 Oeste 0 -- -- 77
2020-10-28 23:00:00 12.7 3 Oeste 8 Noroeste 0 -- -- 76
2020-10-28 22:00:00 15 0 Calma 4 Norte 0 -- -- 67
2020-10-28 21:00:00 16.6 3 Noroeste 5 Noroeste 0 -- -- 62
2020-10-28 20:00:00 17.4 2 Sur 6 Sudoeste 0 -- -- 60
2020-10-28 19:00:00 18.1 3 Noroeste 8 Oeste 0 -- -- 58
2020-10-28 18:00:00 20.2 4 Oeste 11 Noroeste 0 -- -- 51
2020-10-28 17:00:00 21.7 6 Noroeste 15 Oeste 0 -- -- 47
2020-10-28 16:00:00 21.8 5 Noroeste 11 Noroeste 0 -- -- 47
2020-10-28 15:00:00 21.2 3 Oeste 12 Noroeste 0 -- -- 48
2020-10-28 14:00:00 19.4 5 Noroeste 12 Noroeste 0 -- -- 52
2020-10-28 13:00:00 17.6 4 Noroeste 10 Noroeste 0 -- -- 57
2020-10-28 12:00:00 16 4 Oeste 10 Sudoeste 0 -- -- 60
2020-10-28 11:00:00 12.2 0 Calma 5 Oeste 0 -- -- 71
2020-10-28 10:00:00 10.1 4 Oeste 5 Oeste 0 -- -- 77
2020-10-28 09:00:00 9.2 0 Calma 3 Sudeste 0 -- -- 81
2020-10-28 08:00:00 7.5 0 Calma 4 Sudoeste 0 -- -- 84
2020-10-28 07:00:00 8.3 2 Nordeste 8 Oeste 0 -- -- 81
2020-10-28 06:00:00 9.3 3 Nordeste 4 Nordeste 0 -- -- 77
2020-10-28 05:00:00 9.4 0 Calma 4 Sudoeste 0 -- -- 78
2020-10-28 04:00:00 11 2 Oeste 3 Oeste 0 -- -- 70
2020-10-28 03:00:00 11.3 0 Calma 5 Sudoeste 0 -- -- 70
2020-10-28 02:00:00 11.9 3 Sudeste 14 Sudoeste 0 -- -- 68
2020-10-28 01:00:00 12.5 6 Sur 12 Sudoeste 0 -- -- 65
2020-10-28 00:00:00 13.1 2 Sudoeste 13 Sudoeste 0 -- -- 61
2020-10-27 23:00:00 13.2 6 Sudoeste 13 Sudoeste 0 -- -- 58
2020-10-27 22:00:00 13.6 4 Sur 7 Sur 0 -- -- 56
2020-10-27 21:00:00 14.1 3 Noroeste 7 Noroeste 0 -- -- 52
2020-10-27 20:00:00 14.6 3 Noroeste 5 Noroeste 0 -- -- 50
2020-10-27 19:00:00 15.4 4 Oeste 13 Oeste 0 -- -- 48
2020-10-27 18:00:00 17.1 13 Oeste 22 Oeste 0 -- -- 43
2020-10-27 17:00:00 18.2 17 Oeste 25 Oeste 0 -- -- 40
2020-10-27 16:00:00 18.8 17 Oeste 34 Oeste 0 -- -- 39
2020-10-27 15:00:00 18.9 19 Oeste 31 Oeste 0 -- -- 40
2020-10-27 14:00:00 18.6 20 Oeste 33 Oeste 0 -- -- 41
2020-10-27 13:00:00 17.7 19 Oeste 35 Sudoeste 0 -- -- 43
2020-10-27 12:00:00 17.2 14 Oeste 30 Oeste 0 -- -- 46
2020-10-27 11:00:00 14.9 10 Oeste 33 Oeste 0 -- -- 54
2020-10-27 10:00:00 12.1 13 Oeste 22 Oeste 0 -- -- 63
2020-10-27 09:00:00 9.8 5 Noroeste 16 Oeste 0 -- -- 69
2020-10-27 08:00:00 8.9 9 Sudoeste 20 Sudoeste 0 -- -- 73
2020-10-27 07:00:00 9 10 Sur 18 Sur 0 -- -- 72
2020-10-27 06:00:00 8.9 9 Sur 15 Sudoeste 0 -- -- 73
2020-10-27 05:00:00 9.2 6 Sur 17 Sudoeste 0 -- -- 71
2020-10-27 04:00:00 9.3 8 Sur 17 Sur 0 -- -- 72
2020-10-27 03:00:00 10.3 5 Sudoeste 14 Sudoeste 0 -- -- 66
2020-10-27 02:00:00 10.7 6 Noroeste 19 Noroeste 0 -- -- 64
2020-10-27 01:00:00 10.8 12 Oeste 21 Oeste 0 -- -- 63
2020-10-27 00:00:00 11 13 Noroeste 27 Oeste 0 -- -- 63
2020-10-26 23:00:00 11.7 16 Oeste 35 Oeste 0 -- -- 59
2020-10-26 22:00:00 12.3 20 Oeste 44 Oeste 0 -- -- 56
2020-10-26 21:00:00 13.1 31 Oeste 52 Oeste 0 -- -- 53
2020-10-26 20:00:00 13.4 32 Oeste 51 Oeste 0 -- -- 51
2020-10-26 19:00:00 13.9 27 Oeste 52 Oeste 0 -- -- 54
2020-10-26 18:00:00 14.6 28 Oeste 63 Oeste 0 -- -- 52
2020-10-26 17:00:00 15.7 34 Oeste 66 Oeste 0 -- -- 47
2020-10-26 16:00:00 16.3 37 Oeste 67 Oeste 0 -- -- 46
2020-10-26 15:00:00 16.3 39 Oeste 66 Oeste 0 -- -- 47
2020-10-26 14:00:00 16 38 Oeste 63 Oeste 0 -- -- 49
2020-10-26 13:00:00 15.3 37 Oeste 66 Noroeste 0 -- -- 50
2020-10-26 12:00:00 14.8 45 Oeste 67 Oeste 0 -- -- 50
2020-10-26 11:00:00 14.4 31 Oeste 53 Oeste 0 -- -- 53
2020-10-26 10:00:00 13 31 Oeste 51 Oeste 0 -- -- 57
2020-10-26 09:00:00 10.6 18 Oeste 48 Oeste 0 -- -- 68
2020-10-26 08:00:00 9.5 30 Oeste 48 Oeste 0 -- -- 74
2020-10-26 07:00:00 9.8 20 Oeste 35 Oeste 0 -- -- 72
2020-10-26 06:00:00 10.3 14 Sudoeste 28 Sudoeste 0 -- -- 72
2020-10-26 05:00:00 11.3 19 Oeste 35 Oeste 0 -- -- 70
2020-10-26 04:00:00 12.2 22 Oeste 31 Oeste 0 -- -- 72
2020-10-26 03:00:00 12.8 9 Oeste 20 Sudoeste 0 -- -- 81
2020-10-26 02:00:00 12.9 8 Sudoeste 25 Oeste 0 -- -- 84
2020-10-26 01:00:00 13.2 18 Oeste 39 Oeste 0.2 -- -- 83
2020-10-26 00:00:00 13.8 26 Oeste 67 Oeste 0.8 -- -- 84
2020-10-25 23:00:00 15.6 5 Oeste 16 Norte 0 -- -- 68
2020-10-25 22:00:00 16.4 2 Oeste 6 Noroeste 0 -- -- 63
2020-10-25 21:00:00 16.7 3 Sudoeste 9 Nordeste 0 -- -- 59
2020-10-25 20:00:00 17.5 6 Este 13 Este 0 -- -- 54
2020-10-25 19:00:00 17.7 5 Sudeste 13 Sudeste 0 -- -- 55
2020-10-25 18:00:00 18.3 7 Nordeste 15 Este 0 -- -- 52
2020-10-25 17:00:00 19.5 12 Nordeste 20 Nordeste 0 -- -- 49
2020-10-25 16:00:00 20.7 12 Nordeste 17 Nordeste 0 -- -- 46
2020-10-25 15:00:00 20.9 6 Nordeste 15 Nordeste 0 -- -- 45
2020-10-25 14:00:00 20.5 6 Norte 15 Noroeste 0 -- -- 45
2020-10-25 13:00:00 19.6 3 Oeste 8 Oeste 0 -- -- 48
2020-10-25 12:00:00 17.5 3 Sudoeste 8 Sur 0 -- -- 55
2020-10-25 11:00:00 14.5 2 Oeste 7 Oeste 0 -- -- 67
2020-10-25 10:00:00 10.2 0 Calma 3 Noroeste 0 -- -- 81
2020-10-25 09:00:00 6.9 0 Calma 5 Noroeste 0 -- -- 89
2020-10-25 08:00:00 6.5 3 Noroeste 6 Noroeste 0 -- -- 88
2020-10-25 07:00:00 7.2 2 Norte 8 Sur 0 -- -- 86
2020-10-25 06:00:00 7.6 2 Norte 5 Oeste 0 -- -- 84
2020-10-25 05:00:00 8.5 0 Calma 6 Nordeste 0 -- -- 83
2020-10-25 04:00:00 9.4 3 Nordeste 4 Nordeste 0 -- -- 79
2020-10-25 03:00:00 9.3 0 Calma 5 Sur 0 -- -- 78
2020-10-25 02:00:00 10.5 0 Calma 4 Sur 0 -- -- 75
2020-10-25 01:00:00 11.7 0 Calma 3 Sur 0 -- -- 71
2020-10-25 00:00:00 12.9 0 Calma 8 Oeste 0 -- -- 65
2020-10-24 23:00:00 13.7 4 Noroeste 7 Oeste 0 -- -- 61
2020-10-24 22:00:00 15.2 0 Calma 2 Sudoeste 0 -- -- 55
2020-10-24 21:00:00 16.3 0 Calma 4 Oeste 0 -- -- 52
2020-10-24 20:00:00 17.5 2 Noroeste 9 Oeste 0 -- -- 49
2020-10-24 19:00:00 19.4 7 Oeste 17 Oeste 0 -- -- 43
2020-10-24 18:00:00 21.1 12 Oeste 22 Oeste 0 -- -- 39
2020-10-24 17:00:00 21.6 19 Oeste 27 Oeste 0 -- -- 38
2020-10-24 16:00:00 21.9 12 Oeste 22 Oeste 0 -- -- 38
2020-10-24 15:00:00 20.7 6 Oeste 17 Noroeste 0 -- -- 44
2020-10-24 14:00:00 20.1 6 Oeste 20 Oeste 0 -- -- 47
2020-10-24 13:00:00 19.2 4 Sudoeste 13 Sudoeste 0 -- -- 50
2020-10-24 12:00:00 16 4 Sudoeste 9 Sur 0 -- -- 60
2020-10-24 11:00:00 13.8 2 Oeste 6 Oeste 0 -- -- 66
2020-10-24 10:00:00 12.1 2 Norte 4 Norte 0 -- -- 72
2020-10-24 09:00:00 9.6 0 Calma 4 Sur 0 -- -- 80
2020-10-24 08:00:00 9.4 0 Calma 3 Nordeste 0 -- -- 78
2020-10-24 07:00:00 10.1 0 Calma 9 Oeste 0 -- -- 75
2020-10-24 06:00:00 11.5 8 Sudoeste 19 Oeste 0 -- -- 71
2020-10-24 05:00:00 12.1 5 Noroeste 12 Sudoeste 0 -- -- 69
2020-10-24 04:00:00 12.5 4 Sur 15 Oeste 0 -- -- 67
2020-10-24 03:00:00 13.2 4 Norte 17 Sur 0 -- -- 65
2020-10-24 02:00:00 13.5 6 Sudoeste 21 Sudoeste 0 -- -- 64
2020-10-24 01:00:00 14.4 6 Sudoeste 25 Oeste 0 -- -- 60
2020-10-24 00:00:00 14 9 Sudoeste 13 Sudoeste 0 -- -- 61
2020-10-23 23:00:00 14.2 8 Sur 12 Sudoeste 0 -- -- 60
2020-10-23 22:00:00 15.5 3 Oeste 18 Oeste 0 -- -- 54
2020-10-23 21:00:00 16.8 14 Noroeste 25 Oeste 0 -- -- 51
2020-10-23 20:00:00 18.2 17 Oeste 31 Oeste 0 -- -- 46
2020-10-23 19:00:00 19.6 21 Oeste 33 Oeste 0 -- -- 41
2020-10-23 18:00:00 21.3 21 Oeste 37 Oeste 0 -- -- 37
2020-10-23 17:00:00 21.9 26 Oeste 41 Oeste 0 -- -- 36
2020-10-23 16:00:00 21.7 29 Oeste 39 Oeste 0 -- -- 38
2020-10-23 15:00:00 21.5 22 Oeste 36 Sudoeste 0 -- -- 43
2020-10-23 14:00:00 20.6 24 Oeste 37 Oeste 0 -- -- 48
2020-10-23 13:00:00 19.9 22 Oeste 37 Oeste 0 -- -- 52
2020-10-23 12:00:00 18.1 21 Oeste 32 Oeste 0 -- -- 67
2020-10-23 11:00:00 14.9 6 Sudoeste 10 Sudoeste 0 -- -- 96
2020-10-23 10:00:00 13.9 6 Sur 12 Sur 0 -- -- 96
2020-10-23 09:00:00 13 2 Sudoeste 5 Sur 0 -- -- 95
2020-10-23 08:00:00 13.4 0 Calma 4 Nordeste 0 -- -- 95
2020-10-23 07:00:00 13.6 0 Calma 3 Oeste 0 -- -- 93
2020-10-23 06:00:00 14.1 0 Calma 5 Nordeste 0 -- -- 92
2020-10-23 05:00:00 14.4 2 Nordeste 5 Oeste 0 -- -- 92
2020-10-23 04:00:00 14.8 4 Norte 8 Noroeste 0 -- -- 91
2020-10-23 03:00:00 15.1 3 Oeste 13 Este 0 -- -- 90
2020-10-23 02:00:00 15.6 3 Sur 24 Nordeste 0 -- -- 88
2020-10-23 01:00:00 15.5 21 Nordeste 28 Nordeste 0 -- -- 87
2020-10-23 00:00:00 15.7 18 Nordeste 30 Nordeste 0 -- -- 87
2020-10-22 23:00:00 15.8 21 Nordeste 34 Nordeste 0 -- -- 86
2020-10-22 22:00:00 16.2 19 Nordeste 38 Este 0 -- -- 88
2020-10-22 21:00:00 16.2 25 Nordeste 36 Nordeste 0 -- -- 89
2020-10-22 20:00:00 16.6 22 Nordeste 34 Nordeste 0 -- -- 89
2020-10-22 19:00:00 16.8 23 Nordeste 32 Nordeste 0.2 -- -- 88
2020-10-22 18:00:00 17.5 14 Nordeste 21 Este 0.8 -- -- 87
2020-10-22 17:00:00 18.4 10 Nordeste 18 Este 0.6 -- -- 84
2020-10-22 16:00:00 19.5 6 Este 15 Nordeste 0 -- -- 75
2020-10-22 15:00:00 20.1 12 Nordeste 23 Nordeste 0 -- -- 71
2020-10-22 14:00:00 19.8 15 Nordeste 25 Nordeste 0 -- -- 73
2020-10-22 13:00:00 18.8 13 Nordeste 22 Nordeste 0 -- -- 80
2020-10-22 12:00:00 17.9 13 Nordeste 27 Nordeste 0 -- -- 84
2020-10-22 11:00:00 17.2 22 Nordeste 34 Nordeste 0 -- -- 86
2020-10-22 10:00:00 16.4 14 Nordeste 33 Este 0.2 -- -- 91
2020-10-22 09:00:00 16.1 6 Este 29 Nordeste 0.6 -- -- 90
2020-10-22 08:00:00 15.7 6 Sudeste 12 Este 0 -- -- 89
2020-10-22 07:00:00 16.4 10 Este 24 Nordeste 0 -- -- 85
2020-10-22 06:00:00 16.3 13 Nordeste 20 Nordeste 0.2 -- -- 83
2020-10-22 05:00:00 17.5 7 Este 15 Este 0.2 -- -- 79
2020-10-22 04:00:00 18 3 Nordeste 17 Sudeste 0 -- -- 79
2020-10-22 03:00:00 17.9 7 Este 17 Este 0 -- -- 72
2020-10-22 02:00:00 18.6 8 Este 19 Nordeste 0 -- -- 69
2020-10-22 01:00:00 18.8 0 Calma 10 Este 0 -- -- 68
2020-10-22 00:00:00 19.3 0 Calma 14 Sudeste 0 -- -- 67
2020-10-21 23:00:00 20.4 8 Sudeste 22 Sudeste 0 -- -- 64
2020-10-21 22:00:00 20.6 13 Sudeste 26 Sudeste 0 -- -- 64
2020-10-21 21:00:00 20.9 15 Sudeste 25 Sudeste 0 -- -- 64
2020-10-21 20:00:00 22 11 Sudeste 30 Sudeste 0 -- -- 58
2020-10-21 19:00:00 23.9 14 Sudeste 21 Sudeste 0 -- -- 57
2020-10-21 18:00:00 24.7 8 Nordeste 17 Nordeste 0 -- -- 52
2020-10-21 17:00:00 25.5 10 Nordeste 16 Nordeste 0 -- -- 49
2020-10-21 16:00:00 26.2 8 Nordeste 17 Nordeste 0 -- -- 47
2020-10-21 15:00:00 26 5 Este 16 Norte 0 -- -- 49
2020-10-21 14:00:00 25.5 5 Nordeste 18 Este 0 -- -- 52
2020-10-21 13:00:00 24.1 6 Este 16 Nordeste 0 -- -- 61
2020-10-21 12:00:00 22.4 13 Nordeste 19 Nordeste 0 -- -- 65
2020-10-21 11:00:00 19.9 6 Sudeste 24 Nordeste 0 -- -- 73
2020-10-21 10:00:00 18.5 7 Este 18 Este 0 -- -- 78
2020-10-21 09:00:00 18.2 6 Nordeste 31 Nordeste 0 -- -- 78
2020-10-21 08:00:00 18 20 Nordeste 33 Nordeste 0 -- -- 77
2020-10-21 07:00:00 17.8 23 Nordeste 34 Nordeste 0 -- -- 79
2020-10-21 06:00:00 17.9 22 Nordeste 32 Nordeste 0 -- -- 78
2020-10-21 05:00:00 17.5 19 Nordeste 31 Nordeste 0 -- -- 80
2020-10-21 04:00:00 17.5 21 Nordeste 32 Nordeste 0 -- -- 79
2020-10-21 03:00:00 17.1 17 Nordeste 32 Nordeste 0 -- -- 79
2020-10-21 02:00:00 17 17 Nordeste 32 Nordeste 0 -- -- 80
2020-10-21 01:00:00 17.1 16 Nordeste 32 Nordeste 0 -- -- 78
2020-10-21 00:00:00 17.4 19 Este 35 Nordeste 0 -- -- 75
2020-10-20 23:00:00 17.3 22 Nordeste 37 Nordeste 0 -- -- 73
2020-10-20 22:00:00 17.3 17 Nordeste 29 Nordeste 0 -- -- 72
2020-10-20 21:00:00 18.5 13 Nordeste 37 Este 0 -- -- 68
2020-10-20 20:00:00 18.5 15 Este 32 Sudeste 0 -- -- 68
2020-10-20 19:00:00 18.6 17 Este 35 Este 0 -- -- 67
2020-10-20 18:00:00 18.9 14 Este 39 Sudeste 0 -- -- 66
2020-10-20 17:00:00 19.4 20 Este 37 Este 0 -- -- 63
2020-10-20 16:00:00 19.3 18 Este 36 Este 0 -- -- 65
2020-10-20 15:00:00 19.5 19 Este 37 Este 0 -- -- 66
2020-10-20 14:00:00 19.3 14 Este 30 Este 0 -- -- 70
2020-10-20 13:00:00 19 14 Este 35 Sudeste 0 -- -- 70
2020-10-20 12:00:00 20 18 Sudeste 35 Sudeste 0 -- -- 64
2020-10-20 11:00:00 19 16 Sudeste 29 Este 0 -- -- 69
2020-10-20 10:00:00 17.1 16 Nordeste 27 Nordeste 0 -- -- 77
2020-10-20 09:00:00 16.8 12 Este 23 Este 0 -- -- 76
2020-10-20 08:00:00 15.9 14 Este 34 Este 0 -- -- 80
2020-10-20 07:00:00 15.2 18 Nordeste 31 Este 0 -- -- 81
2020-10-20 06:00:00 15.1 17 Nordeste 30 Nordeste 0 -- -- 81
2020-10-20 05:00:00 14.5 22 Nordeste 32 Nordeste 0 -- -- 81
2020-10-20 04:00:00 14.3 22 Nordeste 37 Nordeste 0 -- -- 80
2020-10-20 03:00:00 14.2 25 Nordeste 37 Nordeste 0 -- -- 80
2020-10-20 02:00:00 14.2 24 Nordeste 32 Nordeste 0 -- -- 80
2020-10-20 01:00:00 14.3 23 Nordeste 32 Nordeste 0 -- -- 79
2020-10-20 00:00:00 15.4 18 Nordeste 30 Este 0 -- -- 75
2020-10-19 23:00:00 17 12 Este 30 Este 0 -- -- 71
2020-10-19 22:00:00 17.1 14 Este 28 Este 0 -- -- 70
2020-10-19 21:00:00 17.5 18 Este 34 Este 0 -- -- 68
2020-10-19 20:00:00 18.1 15 Este 30 Este 0 -- -- 62
2020-10-19 19:00:00 19.5 14 Sudeste 39 Sudeste 0 -- -- 54
2020-10-19 18:00:00 21.1 14 Sudeste 40 Sudeste 0 -- -- 50
2020-10-19 17:00:00 21.9 18 Sudeste 38 Sudeste 0 -- -- 50
2020-10-19 16:00:00 22.5 18 Sudeste 35 Sudeste 0 -- -- 50
2020-10-19 15:00:00 22.1 16 Sudeste 39 Sudeste 0 -- -- 51
2020-10-19 14:00:00 21.5 16 Sudeste 30 Sur 0 -- -- 52
2020-10-19 13:00:00 19.3 10 Nordeste 19 Norte 0 -- -- 57
2020-10-19 12:00:00 16 3 Norte 14 Norte 0 -- -- 59
2020-10-19 11:00:00 11.7 0 Calma 6 Sur 0 -- -- 66
2020-10-19 10:00:00 9 0 Calma 5 Oeste 0 -- -- 74
2020-10-19 09:00:00 7.5 3 Noroeste 8 Noroeste 0 -- -- 79
2020-10-19 08:00:00 7 2 Noroeste 7 Noroeste 0 -- -- 80
2020-10-19 07:00:00 6.4 2 Noroeste 6 Oeste 0 -- -- 82
2020-10-19 06:00:00 6.2 2 Noroeste 7 Noroeste 0 -- -- 83
2020-10-19 05:00:00 5.8 3 Noroeste 7 Noroeste 0 -- -- 83
2020-10-19 04:00:00 6.9 0 Calma 5 Oeste 0 -- -- 80
2020-10-19 03:00:00 7.4 2 Noroeste 4 Oeste 0 -- -- 77
2020-10-19 02:00:00 8.3 0 Calma 3 Oeste 0 -- -- 73
2020-10-19 01:00:00 9.1 3 Oeste 6 Sudoeste 0 -- -- 71
2020-10-19 00:00:00 11.3 0 Calma 11 Este 0 -- -- 64
2020-10-18 23:00:00 14.6 6 Este 14 Este 0 -- -- 60
2020-10-18 22:00:00 15.5 9 Este 12 Sudeste 0 -- -- 54
2020-10-18 21:00:00 15.9 5 Este 9 Este 0 -- -- 46
2020-10-18 20:00:00 16.5 4 Sur 13 Nordeste 0 -- -- 46
2020-10-18 19:00:00 18.1 9 Nordeste 15 Nordeste 0 -- -- 42
2020-10-18 18:00:00 19.6 9 Nordeste 13 Sudeste 0 -- -- 38
2020-10-18 17:00:00 20.6 2 Noroeste 12 Sudoeste 0 -- -- 36
2020-10-18 16:00:00 21.1 3 Noroeste 10 Oeste 0 -- -- 35
2020-10-18 15:00:00 19.2 5 Oeste 12 Sudoeste 0 -- -- 40
2020-10-18 14:00:00 17.4 2 Sudoeste 7 Oeste 0 -- -- 46
2020-10-18 13:00:00 14.6 3 Noroeste 7 Oeste 0 -- -- 52
2020-10-18 12:00:00 12.8 4 Oeste 6 Sudoeste 0 -- -- 58
2020-10-18 11:00:00 9 2 Sudoeste 5 Sur 0 -- -- 70
2020-10-18 10:00:00 5.7 0 Calma 5 Noroeste 0 -- -- 83
2020-10-18 09:00:00 3.4 3 Noroeste 5 Noroeste 0 -- -- 88
2020-10-18 08:00:00 3.4 0 Calma 4 Sudoeste 0 -- -- 88
2020-10-18 07:00:00 3.8 0 Calma 5 Oeste 0 -- -- 84
2020-10-18 06:00:00 4.8 0 Calma 2 Noroeste 0 -- -- 84
2020-10-18 05:00:00 5 2 Noroeste 3 Noroeste 0 -- -- 81
2020-10-18 04:00:00 5.8 0 Calma 4 Oeste 0 -- -- 80
2020-10-18 03:00:00 7.3 2 Sur 4 Sur 0 -- -- 73
2020-10-18 02:00:00 8.3 0 Calma 4 Sur 0 -- -- 70
2020-10-18 01:00:00 9.3 0 Calma 8 Este 0 -- -- 66
2020-10-18 00:00:00 10.5 0 Calma 9 Este 0 -- -- 61
2020-10-17 23:00:00 12.6 2 Sudeste 5 Sur 0 -- -- 54
2020-10-17 22:00:00 14 0 Calma 8 Sur 0 -- -- 49
2020-10-17 21:00:00 15 3 Sur 7 Este 0 -- -- 46
2020-10-17 20:00:00 16.3 2 Este 5 Norte 0 -- -- 42
2020-10-17 19:00:00 18.3 3 Noroeste 14 Oeste 0 -- -- 38
2020-10-17 18:00:00 19.8 4 Oeste 13 Oeste 0 -- -- 34
2020-10-17 17:00:00 19.6 5 Oeste 19 Noroeste 0 -- -- 35
2020-10-17 16:00:00 19.6 9 Oeste 19 Oeste 0 -- -- 35
2020-10-17 15:00:00 18.1 4 Sudoeste 9 Sudeste 0 -- -- 41
2020-10-17 14:00:00 16.1 4 Oeste 13 Oeste 0 -- -- 47
2020-10-17 13:00:00 14.2 4 Oeste 10 Sudoeste 0 -- -- 52
2020-10-17 12:00:00 11.7 2 Norte 6 Sudoeste 0 -- -- 60
2020-10-17 11:00:00 8.9 2 Sudoeste 4 Sur 0 -- -- 68
2020-10-17 10:00:00 5.5 0 Calma 3 Este 0 -- -- 77
2020-10-17 09:00:00 3.1 2 Sudoeste 5 Sudoeste 0 -- -- 84
2020-10-17 08:00:00 3.1 0 Calma 3 Sudoeste 0 -- -- 83
2020-10-17 07:00:00 3.5 0 Calma 4 Sudoeste 0 -- -- 81
2020-10-17 06:00:00 4.8 0 Calma 5 Sudoeste 0 -- -- 78
2020-10-17 05:00:00 5.3 0 Calma 4 Sudoeste 0 -- -- 75
2020-10-17 04:00:00 6.4 2 Sudoeste 3 Sudoeste 0 -- -- 71
2020-10-17 03:00:00 8 0 Calma 8 Sur 0 -- -- 68
2020-10-17 02:00:00 9.3 8 Sudoeste 14 Sudoeste 0 -- -- 63
2020-10-17 01:00:00 9.3 6 Sur 8 Sur 0 -- -- 59
2020-10-17 00:00:00 9 4 Sudoeste 5 Sur 0 -- -- 62
2020-10-16 23:00:00 9.9 2 Norte 23 Oeste 0 -- -- 54
2020-10-16 22:00:00 11.2 3 Nordeste 8 Sur 0 -- -- 50
2020-10-16 21:00:00 12.5 5 Sur 9 Sur 0 -- -- 48
2020-10-16 20:00:00 14.7 2 Nordeste 4 Nordeste 0 -- -- 39
2020-10-16 19:00:00 17.3 3 Noroeste 14 Oeste 0 -- -- 35
2020-10-16 18:00:00 18.5 6 Oeste 13 Oeste 0 -- -- 32
2020-10-16 17:00:00 18.2 3 Norte 19 Oeste 0 -- -- 32
2020-10-16 16:00:00 17.9 5 Oeste 19 Oeste 0 -- -- 33
2020-10-16 15:00:00 16.9 6 Oeste 16 Sur 0 -- -- 38
2020-10-16 14:00:00 15.8 7 Oeste 20 Sudoeste 0 -- -- 42
2020-10-16 13:00:00 14 6 Sudoeste 16 Oeste 0 -- -- 50
2020-10-16 12:00:00 12.5 4 Sudoeste 15 Oeste 0 -- -- 56
2020-10-16 11:00:00 10.5 3 Oeste 8 Sudoeste 0 -- -- 65
2020-10-16 10:00:00 8.5 0 Calma 7 Sudoeste 0 -- -- 72
2020-10-16 09:00:00 6.3 4 Sudoeste 15 Sudoeste 0 -- -- 80
2020-10-16 08:00:00 5.5 5 Sudoeste 13 Sudoeste 0 -- -- 82
2020-10-16 07:00:00 5.8 6 Sur 14 Sudoeste 0 -- -- 80
2020-10-16 06:00:00 6.2 7 Sudoeste 11 Sudoeste 0 -- -- 78
2020-10-16 05:00:00 6.5 5 Sudoeste 15 Sudoeste 0 -- -- 75
2020-10-16 04:00:00 7.2 3 Sur 14 Sudoeste 0 -- -- 72
2020-10-16 03:00:00 7.6 8 Sudoeste 20 Sudoeste 0 -- -- 70
2020-10-16 02:00:00 7.9 6 Sudoeste 19 Sudoeste 0 -- -- 67
2020-10-16 01:00:00 8.7 11 Sudoeste 18 Sudoeste 0 -- -- 65
2020-10-16 00:00:00 10.1 14 Oeste 31 Oeste 0 -- -- 57
2020-10-15 23:00:00 11 17 Oeste 31 Oeste 0 -- -- 54
2020-10-15 22:00:00 12 18 Oeste 37 Oeste 0 -- -- 49
2020-10-15 21:00:00 13 23 Oeste 40 Oeste 0 -- -- 47
2020-10-15 20:00:00 14.3 21 Oeste 40 Oeste 0 -- -- 41
2020-10-15 19:00:00 15.7 26 Oeste 50 Oeste 0 -- -- 36
2020-10-15 18:00:00 16.9 28 Oeste 53 Oeste 0 -- -- 36
2020-10-15 17:00:00 17.5 33 Noroeste 53 Oeste 0 -- -- 35
2020-10-15 16:00:00 17 32 Noroeste 46 Oeste 0 -- -- 35
2020-10-15 15:00:00 17.2 31 Oeste 48 Oeste 0 -- -- 38
2020-10-15 14:00:00 17 26 Oeste 42 Oeste 0 -- -- 43
2020-10-15 13:00:00 15.2 28 Noroeste 47 Oeste 0 -- -- 49
2020-10-15 12:00:00 13.9 31 Oeste 44 Oeste 0 -- -- 53
2020-10-15 11:00:00 13 23 Oeste 37 Oeste 0 -- -- 58
2020-10-15 10:00:00 11.4 22 Oeste 38 Oeste 0 -- -- 63
2020-10-15 09:00:00 9.1 9 Oeste 20 Oeste 0 -- -- 71
2020-10-15 08:00:00 8.9 13 Oeste 29 Oeste 0 -- -- 71
2020-10-15 07:00:00 8.8 14 Oeste 24 Oeste 0 -- -- 71
2020-10-15 06:00:00 8.7 5 Oeste 18 Oeste 0 -- -- 70
2020-10-15 05:00:00 9.2 13 Noroeste 29 Oeste 0 -- -- 69
2020-10-15 04:00:00 8.7 15 Noroeste 22 Noroeste 0 -- -- 70
2020-10-15 03:00:00 9.4 15 Oeste 24 Oeste 0 -- -- 67
2020-10-15 02:00:00 9.9 18 Oeste 32 Oeste 0 -- -- 65
2020-10-15 01:00:00 10.5 17 Oeste 32 Noroeste 0 -- -- 62
2020-10-15 00:00:00 11.2 18 Oeste 46 Oeste 0 -- -- 60
2020-10-14 23:00:00 11.9 31 Oeste 53 Oeste 0 -- -- 56
2020-10-14 22:00:00 12.4 31 Noroeste 57 Noroeste 0 -- -- 56
2020-10-14 21:00:00 12.9 35 Noroeste 60 Oeste 0 -- -- 55
2020-10-14 20:00:00 13.6 31 Oeste 57 Oeste 0 -- -- 52
2020-10-14 19:00:00 14.8 30 Oeste 64 Oeste 0 -- -- 46
2020-10-14 18:00:00 16.1 36 Oeste 67 Oeste 0 -- -- 44
2020-10-14 17:00:00 16.7 29 Oeste 62 Oeste 0 -- -- 43
2020-10-14 16:00:00 17.2 41 Noroeste 64 Oeste 0 -- -- 40
2020-10-14 15:00:00 17.5 41 Oeste 60 Oeste 0 -- -- 39
2020-10-14 14:00:00 17.1 38 Oeste 60 Noroeste 0 -- -- 43
2020-10-14 13:00:00 16.4 33 Oeste 58 Oeste 0 -- -- 46
2020-10-14 12:00:00 15 24 Noroeste 49 Oeste 0 -- -- 54
2020-10-14 11:00:00 14.3 24 Oeste 40 Oeste 0 -- -- 58
2020-10-14 10:00:00 12.9 23 Noroeste 37 Noroeste 0 -- -- 66
2020-10-14 09:00:00 10.7 11 Oeste 29 Sudoeste 0 -- -- 79
2020-10-14 08:00:00 10.8 22 Oeste 35 Oeste 0 -- -- 79
2020-10-14 07:00:00 11.2 22 Oeste 31 Oeste 0 -- -- 82
2020-10-14 06:00:00 11.5 10 Sudoeste 22 Sudoeste 0 -- -- 85
2020-10-14 05:00:00 11.6 10 Sudoeste 25 Sudoeste 0.6 -- -- 86
2020-10-14 04:00:00 11.8 14 Sudoeste 30 Sudoeste 1 -- -- 84
2020-10-14 03:00:00 12.3 8 Sur 30 Oeste 0.2 -- -- 81
2020-10-14 02:00:00 14.8 14 Oeste 26 Oeste 0 -- -- 59
2020-10-14 01:00:00 14.9 11 Oeste 27 Oeste 0 -- -- 55
2020-10-14 00:00:00 15.1 15 Oeste 31 Oeste 0 -- -- 53
2020-10-13 23:00:00 15.2 15 Oeste 32 Oeste 0 -- -- 49
2020-10-13 22:00:00 15.2 20 Oeste 35 Oeste 0 -- -- 50
2020-10-13 21:00:00 16.2 19 Oeste 34 Sudoeste 0 -- -- 46
2020-10-13 20:00:00 17.1 21 Oeste 34 Oeste 0 -- -- 45
2020-10-13 19:00:00 18.5 24 Oeste 55 Noroeste 0 -- -- 41
2020-10-13 18:00:00 19.9 35 Noroeste 66 Oeste 0 -- -- 38
2020-10-13 17:00:00 20.7 44 Oeste 69 Oeste 0 -- -- 36
2020-10-13 16:00:00 21.5 42 Oeste 72 Noroeste 0 -- -- 37
2020-10-13 15:00:00 21.5 41 Noroeste 69 Oeste 0 -- -- 38
2020-10-13 14:00:00 21.3 38 Oeste 60 Oeste 0 -- -- 41
2020-10-13 13:00:00 20.3 38 Noroeste 65 Noroeste 0 -- -- 43
2020-10-13 12:00:00 19.1 21 Oeste 39 Oeste 0 -- -- 48
2020-10-13 11:00:00 15.8 3 Este 9 Oeste 0 -- -- 64
2020-10-13 10:00:00 -- -- -- -- -- -- -- -- --
2020-10-13 09:00:00 10.6 8 Oeste 11 Sudoeste 0 -- -- 79
2020-10-13 08:00:00 10.2 6 Oeste 11 Oeste 0 -- -- 78
2020-10-13 07:00:00 10.8 0 Calma 9 Sudoeste 0 -- -- 71
2020-10-13 06:00:00 12.2 3 Sur 8 Sur 0 -- -- 66
2020-10-13 05:00:00 12.2 4 Sudeste 6 Sudeste 0 -- -- 64
2020-10-13 04:00:00 -- -- -- -- -- -- -- -- --
2020-10-13 03:00:00 12.2 4 Sudoeste 15 Noroeste 0 -- -- 59
2020-10-13 02:00:00 13 12 Noroeste 19 Noroeste 0 -- -- 54
2020-10-13 01:00:00 -- -- -- -- -- -- -- -- --
2020-10-13 00:00:00 13.8 8 Sudoeste 28 Oeste 0 -- -- 54
2020-10-12 23:00:00 14.4 18 Oeste 30 Oeste 0 -- -- 51
2020-10-12 22:00:00 14.3 19 Oeste 31 Oeste 0 -- -- 52
2020-10-12 21:00:00 15.1 18 Oeste 37 Oeste 0 -- -- 51
2020-10-12 20:00:00 16.4 13 Oeste 37 Oeste 0 -- -- 41
2020-10-12 19:00:00 18.8 24 Oeste 40 Oeste 0 -- -- 37
2020-10-12 18:00:00 -- -- -- -- -- -- -- -- --
2020-10-12 17:00:00 21.3 19 Noroeste 33 Oeste 0 -- -- 27
2020-10-12 16:00:00 21.1 18 Oeste 33 Oeste 0 -- -- 27
2020-10-12 15:00:00 20.7 19 Oeste 34 Oeste 0 -- -- 29
2020-10-12 14:00:00 19.6 18 Noroeste 32 Oeste 0 -- -- 32
2020-10-12 13:00:00 17.4 11 Noroeste 23 Noroeste 0 -- -- 45
2020-10-12 12:00:00 15.8 14 Noroeste 29 Oeste 0 -- -- 53
2020-10-12 11:00:00 14 20 Noroeste 33 Noroeste 0 -- -- 62
2020-10-12 10:00:00 12.5 14 Noroeste 33 Oeste 0 -- -- 68
2020-10-12 09:00:00 10.9 7 Oeste 23 Oeste 0 -- -- 71
2020-10-12 08:00:00 10.9 13 Oeste 30 Oeste 0 -- -- 71
2020-10-12 07:00:00 10.9 15 Oeste 26 Oeste 0 -- -- 70
2020-10-12 06:00:00 10.8 16 Oeste 30 Noroeste 0 -- -- 71
2020-10-12 05:00:00 10.8 8 Oeste 18 Oeste 0 -- -- 69
2020-10-12 04:00:00 -- -- -- -- -- -- -- -- --
2020-10-12 03:00:00 11.4 10 Oeste 39 Noroeste 0 -- -- 68
2020-10-12 02:00:00 11.8 22 Noroeste 43 Noroeste 0 -- -- 65
2020-10-12 01:00:00 12.3 22 Noroeste 39 Noroeste 0 -- -- 62
2020-10-12 00:00:00 12.7 27 Noroeste 50 Noroeste 0 -- -- 60
2020-10-11 23:00:00 12.9 28 Noroeste 46 Noroeste 0 -- -- 58
2020-10-11 22:00:00 13.5 33 Noroeste 60 Noroeste 0 -- -- 54
2020-10-11 21:00:00 -- -- -- -- -- -- -- -- --
2020-10-11 20:00:00 -- -- -- -- -- -- -- -- --
2020-10-11 19:00:00 17 41 Noroeste 65 Noroeste 0 -- -- 41
2020-10-11 18:00:00 18.6 35 Noroeste 61 Noroeste 0 -- -- 38
2020-10-11 17:00:00 19.4 37 Oeste 56 Oeste 0 -- -- 36
2020-10-11 16:00:00 20.2 32 Oeste 50 Oeste 0 -- -- 38
2020-10-11 15:00:00 20.1 25 Oeste 44 Oeste 0 -- -- 35
2020-10-11 14:00:00 20 24 Oeste 38 Oeste 0 -- -- 32
2020-10-11 13:00:00 18.6 18 Oeste 33 Oeste 0 -- -- 33
2020-10-11 12:00:00 16.8 15 Oeste 27 Oeste 0 -- -- 39
2020-10-11 11:00:00 14.9 14 Oeste 28 Oeste 0 -- -- 45
2020-10-11 10:00:00 13.1 12 Noroeste 27 Oeste 0 -- -- 51
2020-10-11 09:00:00 11.2 13 Oeste 23 Oeste 0 -- -- 58
2020-10-11 08:00:00 11 15 Oeste 23 Oeste 0 -- -- 58
2020-10-11 07:00:00 11.8 12 Oeste 25 Oeste 0 -- -- 54
2020-10-11 06:00:00 12.4 11 Oeste 18 Noroeste 0 -- -- 56
2020-10-11 05:00:00 12.8 6 Oeste 23 Oeste 0 -- -- 59
2020-10-11 04:00:00 13.6 16 Oeste 31 Oeste 0 -- -- 57
2020-10-11 03:00:00 14.2 16 Oeste 34 Oeste 0 -- -- 53
2020-10-11 02:00:00 13.9 16 Oeste 27 Oeste 0 -- -- 56
2020-10-11 01:00:00 13.3 13 Sudoeste 23 Sudoeste 0 -- -- 59
2020-10-11 00:00:00 13.9 12 Sudoeste 29 Sudoeste 0 -- -- 57
2020-10-10 23:00:00 15 14 Sudoeste 29 Oeste 0 -- -- 56
2020-10-10 22:00:00 16.6 21 Oeste 34 Oeste 0 -- -- 50
2020-10-10 21:00:00 17.8 15 Oeste 35 Oeste 0 -- -- 45
2020-10-10 20:00:00 19.6 22 Oeste 41 Oeste 0 -- -- 41
2020-10-10 19:00:00 22.3 25 Oeste 36 Oeste 0 -- -- 39
2020-10-10 18:00:00 24 14 Oeste 33 Noroeste 0 -- -- 43
2020-10-10 17:00:00 24.5 19 Oeste 37 Noroeste 0 -- -- 43
2020-10-10 16:00:00 24 8 Noroeste 18 Noroeste 0 -- -- 42
2020-10-10 15:00:00 23.4 11 Norte 29 Noroeste 0 -- -- 46
2020-10-10 14:00:00 23.3 13 Oeste 28 Sudoeste 0 -- -- 48
2020-10-10 13:00:00 20.6 11 Oeste 20 Oeste 0 -- -- 63
2020-10-10 12:00:00 18.5 7 Oeste 21 Oeste 0 -- -- 65
2020-10-10 11:00:00 18.2 12 Oeste 21 Sudoeste 0 -- -- 66
2020-10-10 10:00:00 15.9 12 Sudoeste 26 Sudoeste 0 -- -- 76
2020-10-10 09:00:00 15.4 11 Sudoeste 17 Sudoeste 0 -- -- 80
2020-10-10 08:00:00 15 12 Sudoeste 21 Sudoeste 0 -- -- 83
2020-10-10 07:00:00 15.2 9 Sudoeste 15 Sudoeste 0 -- -- 83
2020-10-10 06:00:00 15.5 6 Sur 22 Sudoeste 0 -- -- 82
2020-10-10 05:00:00 15.7 9 Sudoeste 14 Sudoeste 0 -- -- 82
2020-10-10 04:00:00 16.5 8 Sudoeste 15 Sudoeste 0 -- -- 86
2020-10-10 03:00:00 17.4 2 Sur 6 Sudeste 0 -- -- 86
2020-10-10 02:00:00 18.2 3 Sur 12 Este 0 -- -- 85
2020-10-10 01:00:00 19.1 6 Sudeste 12 Este 0 -- -- 81
2020-10-10 00:00:00 19.2 2 Sur 14 Sudeste 0 -- -- 81
2020-10-09 23:00:00 19.8 9 Este 15 Este 0 -- -- 79
2020-10-09 22:00:00 21 8 Sudeste 22 Sudeste 0 -- -- 74
2020-10-09 21:00:00 21.7 12 Sudeste 21 Sudeste 0 -- -- 73
2020-10-09 20:00:00 23.3 12 Sudeste 22 Sudeste 0 -- -- 67
2020-10-09 19:00:00 26.6 3 Oeste 6 Sudoeste 0 -- -- 50
2020-10-09 18:00:00 27.2 5 Sudoeste 11 Sur 0 -- -- 49
2020-10-09 17:00:00 26.9 5 Sudoeste 11 Noroeste 0 -- -- 52
2020-10-09 16:00:00 25.8 4 Norte 13 Nordeste 0 -- -- 56
2020-10-09 15:00:00 24.1 4 Noroeste 10 Oeste 0 -- -- 62
2020-10-09 14:00:00 22.5 5 Sudoeste 12 Sudoeste 0 -- -- 68
2020-10-09 13:00:00 20.5 7 Oeste 13 Oeste 0 -- -- 75
2020-10-09 12:00:00 18.2 4 Oeste 10 Oeste 0 -- -- 82
2020-10-09 11:00:00 16.5 4 Oeste 15 Noroeste 0 -- -- 84
2020-10-09 10:00:00 14.4 7 Noroeste 12 Noroeste 0 -- -- 91
2020-10-09 09:00:00 13.5 0 Calma 3 Norte 0 -- -- 93
2020-10-09 08:00:00 13.1 0 Calma 3 Noroeste 0 -- -- 92
2020-10-09 07:00:00 13.4 0 Calma -- -- 0 -- -- 91
2020-10-09 06:00:00 13.5 0 Calma 6 Noroeste 0 -- -- 91
2020-10-09 05:00:00 13.9 4 Oeste 7 Oeste 0 -- -- 91
2020-10-09 04:00:00 15 4 Oeste 6 Oeste 0 -- -- 89
2020-10-09 03:00:00 16.3 2 Noroeste 13 Nordeste 0 -- -- 87
2020-10-09 02:00:00 17.3 11 Nordeste 17 Nordeste 0 -- -- 83
2020-10-09 01:00:00 18.2 10 Este 15 Este 0 -- -- 83
2020-10-09 00:00:00 19.6 7 Este 19 Sudeste 0 -- -- 82
2020-10-08 23:00:00 20.1 11 Sudeste 24 Sudeste 0 -- -- 81
2020-10-08 22:00:00 20.6 8 Sudeste 18 Sudeste 0 -- -- 79
2020-10-08 21:00:00 21 12 Sudeste 22 Sudeste 0 -- -- 78
2020-10-08 20:00:00 22.4 11 Sudeste 26 Sudeste 0 -- -- 71
2020-10-08 19:00:00 25.1 6 Este 12 Nordeste 0 -- -- 46
2020-10-08 18:00:00 26.7 4 Nordeste 12 Noroeste 0 -- -- 42
2020-10-08 17:00:00 26.5 5 Noroeste 14 Noroeste 0 -- -- 42
2020-10-08 16:00:00 25.6 4 Oeste 13 Sudoeste 0 -- -- 43
2020-10-08 15:00:00 24.7 6 Oeste 13 Sudoeste 0 -- -- 47
2020-10-08 14:00:00 22.8 4 Oeste 11 Oeste 0 -- -- 53
2020-10-08 13:00:00 21 3 Noroeste 11 Oeste 0 -- -- 59
2020-10-08 12:00:00 19.5 4 Sudoeste 9 Sudoeste 0 -- -- 63
2020-10-08 11:00:00 17 3 Norte 7 Nordeste 0 -- -- 72
2020-10-08 10:00:00 14.3 3 Sudoeste 6 Sur 0 -- -- 80
2020-10-08 09:00:00 12.7 2 Este 5 Este 0 -- -- 86
2020-10-08 08:00:00 13.1 0 Calma 3 Nordeste 0 -- -- 84
2020-10-08 07:00:00 14.1 0 Calma 8 Sur 0 -- -- 81
2020-10-08 06:00:00 14.5 3 Sudeste 10 Oeste 0 -- -- 79
2020-10-08 05:00:00 15.2 7 Sudoeste 14 Sudoeste 0 -- -- 77
2020-10-08 04:00:00 16 6 Sudoeste 23 Sudoeste 0 -- -- 73
2020-10-08 03:00:00 16.6 8 Sudoeste 19 Oeste 0 -- -- 71
2020-10-08 02:00:00 17.1 4 Sur 18 Sur 0 -- -- 70
2020-10-08 01:00:00 17.7 6 Sur 17 Sudoeste 0 -- -- 66
2020-10-08 00:00:00 18.5 9 Sudoeste 22 Sudoeste 0 -- -- 61
2020-10-07 23:00:00 19.6 7 Sudoeste 22 Oeste 0 -- -- 58
2020-10-07 22:00:00 20.2 11 Sudoeste 18 Sudoeste 0 -- -- 57
2020-10-07 21:00:00 21.2 15 Oeste 29 Oeste 0 -- -- 54
2020-10-07 20:00:00 22.2 16 Oeste 44 Oeste 0 -- -- 52
2020-10-07 19:00:00 24 23 Oeste 49 Oeste 0 -- -- 48
2020-10-07 18:00:00 24.4 35 Oeste 59 Oeste 0 -- -- 46
2020-10-07 17:00:00 25.2 22 Oeste 48 Oeste 0 -- -- 45
2020-10-07 16:00:00 25.4 27 Oeste 47 Oeste 0 -- -- 45
2020-10-07 15:00:00 25.8 27 Oeste 53 Oeste 0 -- -- 46
2020-10-07 14:00:00 25.2 28 Noroeste 49 Noroeste 0 -- -- 48
2020-10-07 13:00:00 25 32 Noroeste 55 Oeste 0 -- -- 49
2020-10-07 12:00:00 24.1 25 Noroeste 37 Noroeste 0 -- -- 52
2020-10-07 11:00:00 21.7 22 Oeste 35 Oeste 0 -- -- 61
2020-10-07 10:00:00 19.4 19 Oeste 30 Oeste 0 -- -- 68
2020-10-07 09:00:00 17 16 Sudoeste 27 Sudoeste 0 -- -- 74
2020-10-07 08:00:00 18.2 16 Oeste 25 Oeste 0 -- -- 68
2020-10-07 07:00:00 19 12 Oeste 33 Oeste 0 -- -- 64
2020-10-07 06:00:00 19.2 15 Noroeste 27 Oeste 0 -- -- 63
2020-10-07 05:00:00 18.2 13 Noroeste 19 Oeste 0 -- -- 68
2020-10-07 04:00:00 18.2 10 Noroeste 20 Noroeste 0 -- -- 69
2020-10-07 03:00:00 18.5 8 Noroeste 14 Noroeste 0 -- -- 68
2020-10-07 02:00:00 19.1 4 Oeste 15 Oeste 0 -- -- 66
2020-10-07 01:00:00 19.7 4 Oeste 19 Sudoeste 0 -- -- 64
2020-10-07 00:00:00 19.7 4 Noroeste 19 Oeste 0 -- -- 64
2020-10-06 23:00:00 20.5 14 Noroeste 22 Noroeste 0 -- -- 61
2020-10-06 22:00:00 21.6 17 Noroeste 22 Oeste 0 -- -- 58
2020-10-06 21:00:00 21.8 13 Noroeste 22 Oeste 0 -- -- 55
2020-10-06 20:00:00 22.5 15 Noroeste 24 Noroeste 0 -- -- 54
2020-10-06 19:00:00 24.1 14 Noroeste 37 Noroeste 0 -- -- 49
2020-10-06 18:00:00 25.5 23 Noroeste 40 Noroeste 0 -- -- 45
2020-10-06 17:00:00 25.5 25 Noroeste 39 Noroeste 0 -- -- 44
2020-10-06 16:00:00 25.8 17 Noroeste 32 Noroeste 0 -- -- 42
2020-10-06 15:00:00 25.7 10 Noroeste 22 Noroeste 0 -- -- 40
2020-10-06 14:00:00 23.1 3 Norte 12 Noroeste 0 -- -- 44
2020-10-06 13:00:00 21.2 3 Este 9 Nordeste 0 -- -- 48
2020-10-06 12:00:00 17.8 3 Sudoeste 6 Noroeste 0 -- -- 53
2020-10-06 11:00:00 14.5 2 Norte 5 Norte 0 -- -- 63
2020-10-06 10:00:00 11.4 2 Nordeste 5 Sudoeste 0 -- -- 76
2020-10-06 09:00:00 8.6 4 Sudoeste 8 Oeste 0 -- -- 83
2020-10-06 08:00:00 7.6 0 Calma 5 Noroeste 0 -- -- 86
2020-10-06 07:00:00 7.8 3 Oeste 4 Oeste 0 -- -- 84
2020-10-06 06:00:00 8.5 3 Oeste 5 Noroeste 0 -- -- 81
2020-10-06 05:00:00 10 0 Calma 6 Noroeste 0 -- -- 72
2020-10-06 04:00:00 11.5 3 Noroeste 6 Norte 0 -- -- 68
2020-10-06 03:00:00 13 2 Norte 6 Sur 0 -- -- 62
2020-10-06 02:00:00 14 0 Calma 6 Sur 0 -- -- 59
2020-10-06 01:00:00 14.5 2 Sudoeste 8 Sudoeste 0 -- -- 56
2020-10-06 00:00:00 14.9 3 Sudeste 15 Sudoeste 0 -- -- 55
2020-10-05 23:00:00 15.3 6 Sur 12 Sur 0 -- -- 53
2020-10-05 22:00:00 15.8 3 Noroeste 11 Noroeste 0 -- -- 51
2020-10-05 21:00:00 16.7 9 Oeste 15 Oeste 0 -- -- 50
2020-10-05 20:00:00 17.7 8 Noroeste 27 Oeste 0 -- -- 49
2020-10-05 19:00:00 19.3 18 Oeste 42 Oeste 0 -- -- 45
2020-10-05 18:00:00 20.1 30 Oeste 47 Oeste 0 -- -- 41
2020-10-05 17:00:00 20.3 30 Noroeste 52 Noroeste 0 -- -- 40
2020-10-05 16:00:00 20.2 30 Oeste 49 Oeste 0 -- -- 39
2020-10-05 15:00:00 19.9 36 Oeste 57 Oeste 0 -- -- 41
2020-10-05 14:00:00 19.6 30 Oeste 53 Oeste 0 -- -- 43
2020-10-05 13:00:00 18.3 33 Oeste 50 Noroeste 0 -- -- 45
2020-10-05 12:00:00 17.2 26 Noroeste 42 Noroeste 0 -- -- 51
2020-10-05 11:00:00 15.7 19 Oeste 30 Oeste 0 -- -- 57
2020-10-05 10:00:00 12.8 5 Sur 10 Sur 0 -- -- 70
2020-10-05 09:00:00 10.5 2 Nordeste 7 Noroeste 0 -- -- 78
2020-10-05 08:00:00 8.8 3 Noroeste 8 Oeste 0 -- -- 81
2020-10-05 07:00:00 9.4 4 Oeste 9 Sudoeste 0 -- -- 80
2020-10-05 06:00:00 10.2 6 Sudoeste 13 Sudoeste 0 -- -- 82
2020-10-05 05:00:00 11.1 9 Sudoeste 19 Sudoeste 0 -- -- 79
2020-10-05 04:00:00 11.5 5 Sudoeste 14 Sudoeste 0 -- -- 75
2020-10-05 03:00:00 11.3 0 Calma 13 Sudoeste 0 -- -- 77
2020-10-05 02:00:00 11.6 2 Sur 15 Sudoeste 0 -- -- 78
2020-10-05 01:00:00 12.1 4 Oeste 20 Sudoeste 0 -- -- 75
2020-10-05 00:00:00 12.2 10 Sudoeste 20 Oeste 0 -- -- 75
2020-10-04 23:00:00 12.4 5 Oeste 21 Oeste 0 -- -- 71
2020-10-04 22:00:00 13.1 6 Noroeste 25 Oeste 0 -- -- 69
2020-10-04 21:00:00 14 16 Oeste 23 Oeste 0 -- -- 68
2020-10-04 20:00:00 14.3 13 Oeste 22 Oeste 0 -- -- 66
2020-10-04 19:00:00 14.2 8 Noroeste 34 Oeste 0.2 -- -- 74
2020-10-04 18:00:00 14.6 20 Noroeste 56 Noroeste 0 -- -- 66
2020-10-04 17:00:00 18.5 18 Noroeste 29 Noroeste 0 -- -- 50
2020-10-04 16:00:00 19.2 10 Noroeste 27 Oeste 0 -- -- 50
2020-10-04 15:00:00 18.2 15 Norte 34 Noroeste 0 -- -- 51
2020-10-04 14:00:00 17.9 17 Noroeste 29 Noroeste 0 -- -- 50
2020-10-04 13:00:00 17.4 12 Noroeste 21 Noroeste 0 -- -- 51
2020-10-04 12:00:00 16.8 2 Noroeste 12 Noroeste 0 -- -- 50
2020-10-04 11:00:00 14.9 4 Oeste 8 Sur 0 -- -- 56
2020-10-04 10:00:00 10.6 3 Sudeste 7 Este 0 -- -- 76
2020-10-04 09:00:00 7.2 2 Sur 6 Sur 0 -- -- 85
2020-10-04 08:00:00 6.8 0 Calma 4 Oeste 0 -- -- 84
2020-10-04 07:00:00 7.8 0 Calma 6 Sur 0 -- -- 79
2020-10-04 06:00:00 9.5 2 Sur 12 Sudoeste 0 -- -- 73
2020-10-04 05:00:00 10.7 5 Sur 9 Sur 0 -- -- 69
2020-10-04 04:00:00 11.8 6 Sur 12 Sudoeste 0 -- -- 61
2020-10-04 03:00:00 12.2 3 Sudeste 14 Sudoeste 0 -- -- 57
2020-10-04 02:00:00 14 8 Sudoeste 16 Sudoeste 0 -- -- 50
2020-10-04 01:00:00 13.8 6 Nordeste 18 Sudoeste 0 -- -- 51
2020-10-04 00:00:00 14.1 2 Sudeste 8 Sudoeste 0 -- -- 49
2020-10-03 23:00:00 14 3 Sudeste 9 Sudoeste 0 -- -- 52
2020-10-03 22:00:00 15.1 3 Noroeste 14 Oeste 0 -- -- 50
2020-10-03 21:00:00 16.2 8 Noroeste 30 Oeste 0 -- -- 47
2020-10-03 20:00:00 17.2 21 Oeste 33 Oeste 0 -- -- 43
2020-10-03 19:00:00 17.8 9 Noroeste 31 Noroeste 0 -- -- 47
2020-10-03 18:00:00 17.9 15 Noroeste 27 Noroeste 0 -- -- 45
2020-10-03 17:00:00 18.5 17 Noroeste 32 Oeste 0 -- -- 47
2020-10-03 16:00:00 17.8 10 Norte 22 Noroeste 0 -- -- 48
2020-10-03 15:00:00 16.6 10 Noroeste 22 Norte 0 -- -- 51
2020-10-03 14:00:00 15.7 14 Noroeste 30 Noroeste 0 -- -- 55
2020-10-03 13:00:00 14.7 22 Noroeste 42 Oeste 0 -- -- 53
2020-10-03 12:00:00 15.8 20 Oeste 44 Oeste 0 -- -- 48
2020-10-03 11:00:00 14.3 24 Oeste 42 Oeste 0 -- -- 55
2020-10-03 10:00:00 12.7 24 Oeste 33 Oeste 0 -- -- 61
2020-10-03 09:00:00 9.8 4 Noroeste 16 Noroeste 0 -- -- 70
2020-10-03 08:00:00 9.2 0 Calma 16 Noroeste 0 -- -- 71
2020-10-03 07:00:00 9.5 9 Noroeste 27 Noroeste 0 -- -- 69
2020-10-03 06:00:00 9.5 10 Oeste 22 Oeste 0 -- -- 68
2020-10-03 05:00:00 9.2 5 Sudoeste 14 Sudoeste 0 -- -- 70
2020-10-03 04:00:00 9.7 6 Oeste 13 Oeste 0 -- -- 70
2020-10-03 03:00:00 9.3 5 Noroeste 11 Noroeste 0 -- -- 73
2020-10-03 02:00:00 10 4 Noroeste 14 Noroeste 0 -- -- 70
2020-10-03 01:00:00 9.6 4 Sur 10 Sudoeste 0 -- -- 71
2020-10-03 00:00:00 10 2 Este 24 Oeste 0 -- -- 70
2020-10-02 23:00:00 11.1 21 Oeste 35 Sudoeste 0 -- -- 64
2020-10-02 22:00:00 11.4 18 Oeste 28 Sudoeste 0 -- -- 63
2020-10-02 21:00:00 12.4 8 Oeste 33 Sudoeste 0 -- -- 61
2020-10-02 20:00:00 12.8 15 Oeste 42 Oeste 0 -- -- 69
2020-10-02 19:00:00 13.5 29 Oeste 49 Sudoeste 0 -- -- 69
2020-10-02 18:00:00 13.1 26 Oeste 45 Oeste 0 -- -- 71
2020-10-02 17:00:00 12.3 23 Oeste 45 Sudoeste 0 -- -- 75
2020-10-02 16:00:00 11.7 22 Oeste 47 Sudoeste 0.4 -- -- 80
2020-10-02 15:00:00 11.5 24 Oeste 48 Oeste 0.6 -- -- 77
2020-10-02 14:00:00 11.7 32 Noroeste 61 Oeste 0.6 -- -- 82
2020-10-02 13:00:00 15.7 22 Oeste 33 Sudoeste 1 -- -- 81
2020-10-02 12:00:00 15.6 3 Norte 44 Noroeste 0.4 -- -- 89
2020-10-02 11:00:00 15.6 6 Sudeste 14 Sudeste 0.4 -- -- 84
2020-10-02 10:00:00 14.6 4 Este 11 Este 0.2 -- -- 92
2020-10-02 09:00:00 13.8 5 Sur 10 Sur 0.6 -- -- 91
2020-10-02 08:00:00 13.9 4 Sur 6 Nordeste 0.4 -- -- 85
2020-10-02 07:00:00 14.2 4 Nordeste 12 Sur 0 -- -- 79
2020-10-02 06:00:00 14.3 0 Calma 5 Sudoeste 0 -- -- 76
2020-10-02 05:00:00 14.6 0 Calma 5 Sudoeste 0 -- -- 75
2020-10-02 04:00:00 15.1 0 Calma 11 Este 0 -- -- 71
2020-10-02 03:00:00 14.8 4 Sur 7 Oeste 0 -- -- 73
2020-10-02 02:00:00 15.4 2 Noroeste 5 Oeste 0 -- -- 68
2020-10-02 01:00:00 17.4 0 Calma 9 Sur 0 -- -- 60
2020-10-02 00:00:00 18.7 5 Sur 9 Sudeste 0 -- -- 55
2020-10-01 23:00:00 18.6 0 Calma 6 Sur 0 -- -- 56
2020-10-01 22:00:00 19.7 0 Calma 3 Norte 0 -- -- 52
2020-10-01 21:00:00 20.8 0 Calma 13 Noroeste 0 -- -- 49
2020-10-01 20:00:00 22 9 Noroeste 18 Noroeste 0 -- -- 46
2020-10-01 19:00:00 23.3 11 Noroeste 25 Oeste 0 -- -- 43
2020-10-01 18:00:00 24.4 21 Noroeste 31 Noroeste 0 -- -- 40
2020-10-01 17:00:00 25.5 14 Noroeste 27 Sudoeste 0 -- -- 37
2020-10-01 16:00:00 26.8 16 Oeste 31 Oeste 0 -- -- 36
2020-10-01 15:00:00 25.5 12 Noroeste 24 Noroeste 0 -- -- 42
2020-10-01 14:00:00 24.5 13 Noroeste 24 Oeste 0 -- -- 45
2020-10-01 13:00:00 22 3 Noroeste 10 Sudeste 0 -- -- 55
2020-10-01 12:00:00 19.5 5 Oeste 8 Oeste 0 -- -- 61
2020-10-01 11:00:00 16.3 3 Oeste 11 Oeste 0 -- -- 69
2020-10-01 10:00:00 14.1 0 Calma 7 Norte 0 -- -- 76
2020-10-01 09:00:00 11.6 0 Calma 5 Oeste 0 -- -- 88
2020-10-01 08:00:00 11.1 0 Calma 7 Oeste 0 -- -- 89
2020-10-01 07:00:00 11.1 0 Calma 4 Oeste 0 -- -- 89
2020-10-01 06:00:00 12 2 Sudoeste 6 Noroeste 0 -- -- 84
2020-10-01 05:00:00 12.4 2 Oeste 9 Oeste 0 -- -- 85
2020-10-01 04:00:00 13.5 3 Noroeste 7 Oeste 0 -- -- 82
2020-10-01 03:00:00 14.4 3 Sur 5 Sur 0 -- -- 81
2020-10-01 02:00:00 16.4 3 Este 16 Este 0 -- -- 76
2020-10-01 01:00:00 17.3 11 Este 15 Este 0 -- -- 74
2020-10-01 00:00:00 19 9 Este 23 Sudeste 0 -- -- 73
2020-09-30 23:00:00 19.5 14 Sudeste 24 Sudeste 0 -- -- 71
2020-09-30 22:00:00 20.5 15 Sudeste 24 Sudeste 0 -- -- 66
2020-09-30 21:00:00 21.4 14 Sudeste 23 Sudeste 0 -- -- 66
2020-09-30 20:00:00 23.1 10 Este 16 Este 0 -- -- 39
2020-09-30 19:00:00 25.9 9 Nordeste 12 Nordeste 0 -- -- 34
2020-09-30 18:00:00 26.9 9 Nordeste 13 Nordeste 0 -- -- 34
2020-09-30 17:00:00 27.3 8 Nordeste 14 Nordeste 0 -- -- 32
2020-09-30 16:00:00 26 6 Este 12 Sudeste 0 -- -- 35
2020-09-30 15:00:00 25.1 6 Sudoeste 15 Sudeste 0 -- -- 39
2020-09-30 14:00:00 22.7 3 Nordeste 13 Nordeste 0 -- -- 47
2020-09-30 13:00:00 20.7 4 Norte 10 Noroeste 0 -- -- 54
2020-09-30 12:00:00 17.8 3 Noroeste 6 Norte 0 -- -- 57
2020-09-30 11:00:00 15 2 Oeste 5 Sudeste 0 -- -- 64
2020-09-30 10:00:00 11.3 0 Calma 4 Sudoeste 0 -- -- 77
2020-09-30 09:00:00 8.9 0 Calma 4 Oeste 0 -- -- 85
2020-09-30 08:00:00 8.1 3 Oeste 4 Oeste 0 -- -- 86
2020-09-30 07:00:00 8.6 3 Noroeste 4 Noroeste 0 -- -- 85
2020-09-30 06:00:00 9 0 Calma 2 Oeste 0 -- -- 84
2020-09-30 05:00:00 9.6 0 Calma 2 Sudoeste 0 -- -- 82
2020-09-30 04:00:00 10.1 0 Calma 5 Noroeste 0 -- -- 80
2020-09-30 03:00:00 11.1 0 Calma 4 Oeste 0 -- -- 79
2020-09-30 02:00:00 12.3 2 Noroeste 6 Noroeste 0 -- -- 73
2020-09-30 01:00:00 12.9 3 Noroeste 6 Oeste 0 -- -- 73
2020-09-30 00:00:00 15.3 5 Oeste 12 Este 0 -- -- 64